createdAt,value
2023-03-29T00:02:53.774Z,25.00
2023-03-29T00:06:54.670Z,25.00
2023-03-29T00:10:54.679Z,0.00
2023-03-29T00:14:54.764Z,8.94
2023-03-29T00:18:54.756Z,25.00
2023-03-29T00:22:54.697Z,26.30
2023-03-29T00:26:54.704Z,25.73
2023-03-29T00:30:54.708Z,27.05
2023-03-29T00:34:54.729Z,26.58
2023-03-29T00:38:54.688Z,29.18
2023-03-29T00:42:54.706Z,31.28
2023-03-29T00:46:54.904Z,25.00
2023-03-29T00:50:54.780Z,23.66
2023-03-29T00:54:54.729Z,28.65
2023-03-29T00:58:54.736Z,31.11
2023-03-29T01:02:55.012Z,29.13
2023-03-29T01:06:55.105Z,30.34
2023-03-29T01:10:54.712Z,29.95
2023-03-29T01:14:54.741Z,29.85
2023-03-29T01:18:54.742Z,25.71
2023-03-29T01:22:54.795Z,30.07
2023-03-29T01:26:54.746Z,28.22
2023-03-29T01:30:54.760Z,30.01
2023-03-29T01:34:54.722Z,26.93
2023-03-29T01:38:54.789Z,28.78
2023-03-29T01:42:54.686Z,28.80
2023-03-29T01:46:54.316Z,31.02
2023-03-29T01:50:54.287Z,29.48
2023-03-29T01:54:54.773Z,29.68
2023-03-29T01:58:54.774Z,31.25
2023-03-29T02:02:54.852Z,26.93
2023-03-29T02:06:54.319Z,27.01
2023-03-29T02:10:54.388Z,26.59
2023-03-29T02:14:54.270Z,29.83
2023-03-29T02:18:54.209Z,30.76
2023-03-29T02:22:54.218Z,31.41
2023-03-29T02:26:54.192Z,26.57
2023-03-29T02:30:54.132Z,28.49
2023-03-29T02:34:54.055Z,28.65
2023-03-29T02:38:54.047Z,31.24
2023-03-29T02:42:54.171Z,29.32
2023-03-29T02:46:53.998Z,27.25
2023-03-29T02:50:53.967Z,28.52
2023-03-29T02:54:53.910Z,30.05
2023-03-29T02:58:53.895Z,29.64
2023-03-29T03:02:54.042Z,27.53
2023-03-29T03:06:53.913Z,32.95
2023-03-29T03:10:53.840Z,27.61
2023-03-29T03:14:53.848Z,31.51
2023-03-29T03:18:54.113Z,30.19
2023-03-29T03:22:53.781Z,27.14
2023-03-29T03:26:53.717Z,31.28
2023-03-29T03:30:53.674Z,27.75
2023-03-29T03:34:53.705Z,31.53
2023-03-29T03:38:53.626Z,29.78
2023-03-29T03:42:53.573Z,31.14
2023-03-29T03:46:53.590Z,31.32
2023-03-29T03:50:53.595Z,28.73
2023-03-29T03:54:53.562Z,31.04
2023-03-29T03:58:53.528Z,29.03
2023-03-29T04:02:53.596Z,30.09
2023-03-29T04:06:53.428Z,32.29
2023-03-29T04:10:53.390Z,29.99
2023-03-29T04:14:53.575Z,29.90
2023-03-29T04:18:53.624Z,31.88
2023-03-29T04:22:53.504Z,32.97
2023-03-29T04:26:53.465Z,31.21
2023-03-29T04:30:53.660Z,27.75
2023-03-29T04:34:53.438Z,31.37
2023-03-29T04:38:53.598Z,28.59
2023-03-29T04:42:53.595Z,31.09
2023-03-29T04:46:53.332Z,28.02
2023-03-29T04:50:53.629Z,26.76
2023-03-29T04:54:53.216Z,31.51
2023-03-29T04:58:53.180Z,32.72
2023-03-29T05:02:55.189Z,30.56
2023-03-29T05:06:53.132Z,31.12
2023-03-29T05:10:53.074Z,28.05
2023-03-29T05:14:53.106Z,29.53
2023-03-29T05:18:53.117Z,32.69
2023-03-29T05:22:53.136Z,29.62
2023-03-29T05:26:52.925Z,30.95
2023-03-29T05:30:53.116Z,27.91
2023-03-29T05:34:53.122Z,29.28
2023-03-29T05:38:53.142Z,34.27
2023-03-29T05:42:53.121Z,42.44
2023-03-29T05:46:53.130Z,50.51
2023-03-29T05:50:53.120Z,59.09
2023-03-29T05:54:52.904Z,71.53
2023-03-29T05:58:54.881Z,77.96
2023-03-29T06:02:53.228Z,84.80
2023-03-29T06:06:53.130Z,86.92
2023-03-29T06:10:53.168Z,84.91
2023-03-29T06:14:53.127Z,81.60
2023-03-29T06:18:53.135Z,83.65
2023-03-29T06:22:53.128Z,83.30
2023-03-29T06:26:53.158Z,82.52
2023-03-29T06:30:53.179Z,77.08
2023-03-29T06:34:53.169Z,77.54
2023-03-29T06:38:53.149Z,75.39
2023-03-29T06:42:53.227Z,74.57
2023-03-29T06:46:53.176Z,71.32
2023-03-29T06:50:56.349Z,69.26
2023-03-29T06:54:53.147Z,69.65
2023-03-29T06:58:53.178Z,66.32
2023-03-29T07:02:53.216Z,64.73
2023-03-29T07:06:53.147Z,60.31
2023-03-29T07:10:53.161Z,61.71
2023-03-29T07:14:53.690Z,58.91
2023-03-29T07:18:53.146Z,56.52
2023-03-29T07:22:53.664Z,56.29
2023-03-29T07:30:52.202Z,53.38
2023-03-29T07:34:53.163Z,62.58
2023-03-29T07:38:55.878Z,72.09
2023-03-29T07:42:53.185Z,87.70
2023-03-29T07:46:53.224Z,134.34
2023-03-29T07:50:53.198Z,158.03
2023-03-29T07:54:53.188Z,174.08
2023-03-29T07:58:53.157Z,187.16
2023-03-29T08:02:56.492Z,192.18
2023-03-29T08:06:52.669Z,138.36
2023-03-29T08:10:52.686Z,89.83
2023-03-29T08:14:53.727Z,62.65
2023-03-29T08:18:53.195Z,35.51
2023-03-29T08:22:53.184Z,31.36
2023-03-29T08:26:53.689Z,24.01
2023-03-29T08:30:53.235Z,38.08
2023-03-29T08:34:54.137Z,28.52
2023-03-29T08:38:53.679Z,26.14
2023-03-29T08:42:54.197Z,33.45
2023-03-29T08:46:54.806Z,73.58
2023-03-29T08:50:54.368Z,121.35
2023-03-29T08:54:54.681Z,158.00
2023-03-29T08:58:54.182Z,190.54
2023-03-29T09:02:54.372Z,210.13
2023-03-29T09:06:54.223Z,222.56
2023-03-29T09:10:53.890Z,247.13
2023-03-29T09:14:54.191Z,249.40
2023-03-29T09:18:54.196Z,247.93
2023-03-29T09:22:53.908Z,247.96
2023-03-29T09:30:54.210Z,257.70
2023-03-29T09:34:54.202Z,248.44
2023-03-29T09:38:54.381Z,242.72
2023-03-29T09:42:54.178Z,250.00
2023-03-29T09:46:54.205Z,245.60
2023-03-29T09:50:54.203Z,250.00
2023-03-29T09:54:54.233Z,249.30
2023-03-29T09:58:54.222Z,248.97
2023-03-29T10:02:53.871Z,250.00
2023-03-29T10:06:53.706Z,250.00
2023-03-29T10:10:53.736Z,248.43
2023-03-29T10:14:54.332Z,248.73
2023-03-29T10:18:53.745Z,249.34
2023-03-29T10:22:54.246Z,249.61
2023-03-29T10:26:53.745Z,250.00
2023-03-29T10:30:53.734Z,248.45
2023-03-29T10:34:53.785Z,248.66
2023-03-29T10:38:53.557Z,143.94
2023-03-29T10:42:53.769Z,25.24
2023-03-29T10:46:53.727Z,43.99
2023-03-29T10:50:53.730Z,71.95
2023-03-29T10:54:54.226Z,91.46
2023-03-29T10:58:54.252Z,115.41
2023-03-29T11:02:54.397Z,129.87
2023-03-29T11:06:54.734Z,146.16
2023-03-29T11:10:54.228Z,152.01
2023-03-29T11:14:54.201Z,148.31
2023-03-29T11:18:54.235Z,151.80
2023-03-29T11:22:54.233Z,154.91
2023-03-29T11:26:54.235Z,157.83
2023-03-29T11:30:54.255Z,157.62
2023-03-29T11:34:54.240Z,162.76
2023-03-29T11:38:54.246Z,162.45
2023-03-29T11:42:54.240Z,164.55
2023-03-29T11:46:54.269Z,165.20
2023-03-29T11:50:54.243Z,168.06
2023-03-29T11:54:54.177Z,166.73
2023-03-29T11:58:54.245Z,170.48
2023-03-29T12:02:54.377Z,173.34
2023-03-29T12:06:54.249Z,170.30
2023-03-29T12:10:55.029Z,166.26
2023-03-29T12:14:54.771Z,138.66
2023-03-29T12:18:55.038Z,55.86
2023-03-29T12:22:54.780Z,24.69
2023-03-29T12:26:54.642Z,44.29
2023-03-29T12:30:54.770Z,66.25
2023-03-29T12:34:55.309Z,89.82
2023-03-29T12:38:55.262Z,104.95
2023-03-29T12:42:55.271Z,120.97
2023-03-29T12:46:55.169Z,131.15
2023-03-29T12:50:55.293Z,141.37
2023-03-29T12:54:55.315Z,152.67
2023-03-29T12:58:55.290Z,152.04
2023-03-29T13:02:55.319Z,150.79
2023-03-29T13:06:55.810Z,141.08
2023-03-29T13:10:55.508Z,138.99
2023-03-29T13:14:55.782Z,130.82
2023-03-29T13:18:56.280Z,138.29
2023-03-29T13:22:55.812Z,142.83
2023-03-29T13:26:55.339Z,145.07
2023-03-29T13:30:55.873Z,144.82
2023-03-29T13:34:55.480Z,144.99
2023-03-29T13:38:55.485Z,145.40
2023-03-29T13:42:55.433Z,146.25
2023-03-29T13:46:55.856Z,144.78
2023-03-29T13:50:55.791Z,143.98
2023-03-29T13:54:55.816Z,144.45
2023-03-29T13:58:55.296Z,143.18
2023-03-29T14:02:55.346Z,143.54
2023-03-29T14:06:55.299Z,141.60
2023-03-29T14:10:55.331Z,143.97
2023-03-29T14:14:59.099Z,142.24
2023-03-29T14:18:55.298Z,142.97
2023-03-29T14:22:55.800Z,141.17
2023-03-29T14:26:55.038Z,140.75
2023-03-29T14:30:55.312Z,138.11
2023-03-29T14:34:55.728Z,137.90
2023-03-29T14:38:55.315Z,136.74
2023-03-29T14:42:55.332Z,136.47
2023-03-29T14:46:56.308Z,134.78
2023-03-29T14:50:54.784Z,135.84
2023-03-29T14:54:54.808Z,133.19
2023-03-29T14:58:54.845Z,132.11
2023-03-29T15:02:54.902Z,131.27
2023-03-29T15:06:54.838Z,130.08
2023-03-29T15:10:54.729Z,130.40
2023-03-29T15:14:54.733Z,128.97
2023-03-29T15:18:54.728Z,128.08
2023-03-29T15:22:54.823Z,127.22
2023-03-29T15:26:54.690Z,126.11
2023-03-29T15:31:06.801Z,126.28
2023-03-29T15:34:54.652Z,126.40
2023-03-29T15:38:54.612Z,123.06
2023-03-29T15:42:54.581Z,123.21
2023-03-29T15:46:54.667Z,122.64
2023-03-29T15:50:54.498Z,121.21
2023-03-29T15:54:54.831Z,121.64
2023-03-29T15:58:54.429Z,119.41
2023-03-29T16:02:54.470Z,118.24
2023-03-29T16:06:54.358Z,118.68
2023-03-29T16:10:54.308Z,118.93
2023-03-29T16:14:54.293Z,116.92
2023-03-29T16:18:54.254Z,118.35
2023-03-29T16:22:54.210Z,116.62
2023-03-29T16:26:55.739Z,117.25
2023-03-29T16:30:54.123Z,116.45
2023-03-29T16:34:54.109Z,116.32
2023-03-29T16:38:54.046Z,116.45
2023-03-29T16:42:54.025Z,116.01
2023-03-29T16:46:54.447Z,115.99
2023-03-29T16:50:54.012Z,116.44
2023-03-29T16:54:53.894Z,115.04
2023-03-29T16:58:53.868Z,117.76
2023-03-29T17:02:53.831Z,116.47
2023-03-29T17:06:53.833Z,115.81
2023-03-29T17:10:53.738Z,116.25
2023-03-29T17:14:53.722Z,116.50
2023-03-29T17:18:53.666Z,116.04
2023-03-29T17:22:53.725Z,115.91
2023-03-29T17:26:53.788Z,116.48
2023-03-29T17:30:54.380Z,118.26
2023-03-29T17:34:53.979Z,116.41
2023-03-29T17:38:54.093Z,116.72
2023-03-29T17:42:54.153Z,116.03
2023-03-29T17:46:54.274Z,117.53
2023-03-29T17:50:54.347Z,115.66
2023-03-29T17:54:54.510Z,115.60
2023-03-29T17:58:54.597Z,116.52
2023-03-29T18:02:55.033Z,116.06
2023-03-29T18:06:54.815Z,114.99
2023-03-29T18:10:54.931Z,115.31
2023-03-29T18:14:54.999Z,114.81
2023-03-29T18:18:55.103Z,114.69
2023-03-29T18:22:55.388Z,117.10
2023-03-29T18:26:55.366Z,114.84
2023-03-29T18:30:55.476Z,113.45
2023-03-29T18:34:56.252Z,115.21
2023-03-29T18:38:55.765Z,114.40
2023-03-29T18:42:55.925Z,111.92
2023-03-29T18:46:56.337Z,111.82
2023-03-29T18:50:56.897Z,110.53
2023-03-29T18:54:56.400Z,110.95
2023-03-29T18:58:56.489Z,111.12
2023-03-29T19:02:56.706Z,109.59
2023-03-29T19:06:56.917Z,109.55
2023-03-29T19:10:56.909Z,108.82
2023-03-29T19:18:56.328Z,109.39
2023-03-29T19:26:56.459Z,107.41
2023-03-29T19:34:56.700Z,106.76
2023-03-29T19:42:57.342Z,104.82
2023-03-29T19:50:57.339Z,104.13
2023-03-29T19:58:57.575Z,101.92
2023-03-29T20:06:57.846Z,101.72
2023-03-29T23:07:05.939Z,73.53
